LBSF/SOF METAR and TAF weather

Enter ICAO airport designator
Station Type Date Time Source
LBSF METAR 2020/09/27 15:30 UTC NOAA

LBSF 271530Z 03005KT CAVOK 21/06 Q1014 NOSIG


Station Type Date Time Source
LBSF Decoded METAR 2020/09/27 15:30 UTC NOAA

Sofia Observ. , Bulgaria (LBSF) 42-39N 023-23E 595M
Sep 27, 2020 - 11:30 AM EDT / 2020.09.27 1530 UTC
Wind: from the NNE (030 degrees) at 6 MPH (5 KT):0
Visibility: greater than 7 mile(s):0
Temperature: 69 F (21 C)
Dew Point: 42 F (6 C)
Relative Humidity: 37%
Pressure (altimeter): 29.94 in. Hg (1014 hPa)
ob: LBSF 271530Z 03005KT CAVOK 21/06 Q1014 NOSIG
cycle: 15

Station Type Date Time Source
LBSF TAF 2020/09/27 12:18 UTC NOAA

TAF LBSF 271100Z 2712/2812 12012KT 9999 SCT060 PROB30 2712/2715 21012KT
BECMG 2718/2720 VRB04KT
BECMG 2802/2804 10010KT
TEMPO 2810/2812 21014G28KT

Example: see airport list